createdAt,value
2022-09-28T00:01:30.696Z,50.87
2022-09-28T00:04:00.659Z,50.82
2022-09-28T00:06:32.689Z,50.98
2022-09-28T00:09:02.930Z,50.81
2022-09-28T00:11:31.450Z,51.09
2022-09-28T00:14:04.420Z,51.01
2022-09-28T00:16:36.574Z,51.24
2022-09-28T00:19:06.029Z,50.82
2022-09-28T00:21:37.333Z,51.06
2022-09-28T00:24:13.524Z,50.94
2022-09-28T00:26:48.179Z,51.14
2022-09-28T00:29:37.190Z,51.12
2022-09-28T00:32:11.590Z,51.00
2022-09-28T00:34:42.291Z,51.12
2022-09-28T00:37:11.602Z,51.03
2022-09-28T00:39:42.331Z,51.64
2022-09-28T00:42:15.450Z,51.33
2022-09-28T00:44:47.591Z,51.92
2022-09-28T00:47:35.249Z,52.31
2022-09-28T00:50:11.935Z,52.10
2022-09-28T00:52:57.687Z,52.46
2022-09-28T00:55:49.545Z,52.49
2022-09-28T00:58:26.810Z,52.65
2022-09-28T01:00:57.832Z,52.75
2022-09-28T01:03:28.094Z,52.77
2022-09-28T01:05:59.770Z,53.18
2022-09-28T01:08:30.650Z,53.17
2022-09-28T01:11:00.895Z,53.24
2022-09-28T01:13:32.447Z,53.35
2022-09-28T01:16:09.098Z,53.56
2022-09-28T01:19:14.291Z,54.04
2022-09-28T01:21:59.304Z,54.23
2022-09-28T01:24:42.175Z,54.53
2022-09-28T01:27:53.374Z,54.75
2022-09-28T01:30:23.374Z,54.57
2022-09-28T01:33:23.744Z,54.83
2022-09-28T01:35:55.675Z,55.01
2022-09-28T01:38:29.990Z,54.87
2022-09-28T01:41:00.490Z,55.14
2022-09-28T01:43:30.910Z,55.32
2022-09-28T01:46:15.501Z,55.34
2022-09-28T01:48:58.181Z,56.10
2022-09-28T01:52:01.977Z,55.69
2022-09-28T01:54:44.245Z,55.99
2022-09-28T01:57:48.091Z,56.21
2022-09-28T02:00:19.129Z,56.56
2022-09-28T02:03:01.684Z,57.17
2022-09-28T02:05:37.009Z,56.88
2022-09-28T02:08:08.989Z,57.29
2022-09-28T02:10:44.056Z,57.67
2022-09-28T02:13:44.075Z,57.51
2022-09-28T02:16:33.541Z,57.64
2022-09-28T02:19:02.589Z,57.65
2022-09-28T02:21:39.152Z,57.99
2022-09-28T02:24:23.126Z,57.96
2022-09-28T02:26:53.205Z,58.13
2022-09-28T02:29:21.526Z,58.06
2022-09-28T02:31:50.374Z,58.63
2022-09-28T02:34:18.910Z,58.34
2022-09-28T02:36:48.768Z,58.80
2022-09-28T02:39:18.926Z,58.62
2022-09-28T02:41:52.882Z,58.53
2022-09-28T02:44:43.837Z,58.66
2022-09-28T02:47:42.956Z,58.91
2022-09-28T02:50:51.390Z,59.20
2022-09-28T02:53:39.605Z,59.25
2022-09-28T02:56:35.401Z,59.45
2022-09-28T02:59:18.464Z,59.33
2022-09-28T03:02:23.816Z,59.69
2022-09-28T03:05:13.446Z,59.73
2022-09-28T03:07:54.160Z,59.86
2022-09-28T03:10:45.053Z,60.23
2022-09-28T03:13:15.000Z,59.84
2022-09-28T03:15:48.567Z,60.09
2022-09-28T03:18:18.006Z,59.87
2022-09-28T03:20:46.329Z,59.95
2022-09-28T03:23:29.681Z,60.09
2022-09-28T03:25:58.062Z,59.94
2022-09-28T03:28:26.965Z,60.06
2022-09-28T03:30:56.073Z,60.23
2022-09-28T03:33:24.850Z,60.54
2022-09-28T03:35:53.207Z,60.47
2022-09-28T03:38:22.169Z,60.83
2022-09-28T03:41:01.214Z,60.77
2022-09-28T03:43:31.709Z,60.66
2022-09-28T03:46:01.973Z,61.04
2022-09-28T03:48:33.605Z,61.08
2022-09-28T03:51:05.369Z,61.10
2022-09-28T03:53:34.975Z,61.28
2022-09-28T03:56:12.893Z,61.49
2022-09-28T03:58:41.515Z,61.61
2022-09-28T04:01:17.817Z,61.77
2022-09-28T04:03:54.270Z,62.02
2022-09-28T04:06:23.237Z,61.91
2022-09-28T04:08:51.589Z,62.31
2022-09-28T04:11:19.929Z,62.09
2022-09-28T04:13:51.442Z,62.20
2022-09-28T04:16:20.588Z,62.35
2022-09-28T04:18:49.499Z,62.54
2022-09-28T04:21:23.086Z,62.60
2022-09-28T04:23:51.388Z,62.62
2022-09-28T04:26:25.366Z,62.61
2022-09-28T04:29:12.671Z,62.75
2022-09-28T04:31:52.143Z,62.73
2022-09-28T04:34:23.108Z,62.94
2022-09-28T04:36:52.170Z,63.00
2022-09-28T04:39:20.551Z,63.02
2022-09-28T04:41:50.287Z,63.07
2022-09-28T04:44:18.790Z,63.13
2022-09-28T04:46:47.154Z,63.39
2022-09-28T04:49:15.678Z,63.31
2022-09-28T04:51:44.082Z,63.48
2022-09-28T04:54:12.509Z,63.35
2022-09-28T04:56:40.880Z,63.75
2022-09-28T04:59:09.345Z,64.13
2022-09-28T05:01:37.984Z,63.95
2022-09-28T05:04:06.335Z,64.04
2022-09-28T05:06:34.659Z,64.16
2022-09-28T05:09:03.280Z,64.09
2022-09-28T05:11:31.750Z,64.26
2022-09-28T05:14:00.106Z,64.18
2022-09-28T05:16:30.263Z,64.18
2022-09-28T05:18:58.965Z,64.46
2022-09-28T05:21:29.037Z,64.44
2022-09-28T05:23:59.249Z,64.70
2022-09-28T05:26:27.595Z,64.31
2022-09-28T05:28:56.069Z,64.81
2022-09-28T05:31:24.434Z,64.95
2022-09-28T05:33:53.042Z,64.77
2022-09-28T05:36:21.692Z,64.79
2022-09-28T05:38:50.021Z,64.96
2022-09-28T05:41:18.331Z,64.90
2022-09-28T05:43:46.648Z,64.95
2022-09-28T05:46:15.646Z,65.22
2022-09-28T05:48:44.091Z,65.17
2022-09-28T05:51:13.006Z,65.33
2022-09-28T05:53:41.350Z,65.26
2022-09-28T05:56:09.669Z,65.17
2022-09-28T05:58:37.919Z,65.40
2022-09-28T06:01:06.327Z,65.31
2022-09-28T06:03:34.650Z,65.29
2022-09-28T06:06:06.154Z,65.36
2022-09-28T06:08:34.635Z,65.52
2022-09-28T06:11:03.929Z,65.51
2022-09-28T06:13:33.007Z,65.72
2022-09-28T06:16:02.055Z,65.76
2022-09-28T06:18:30.339Z,65.74
2022-09-28T06:20:59.251Z,65.80
2022-09-28T06:23:27.609Z,66.08
2022-09-28T06:25:55.901Z,66.04
2022-09-28T06:28:24.391Z,66.06
2022-09-28T06:30:52.920Z,66.29
2022-09-28T06:33:21.505Z,66.49
2022-09-28T06:35:49.866Z,66.34
2022-09-28T06:38:18.165Z,66.24
2022-09-28T06:40:46.649Z,66.35
2022-09-28T06:43:16.449Z,66.50
2022-09-28T06:45:45.259Z,66.57
2022-09-28T06:48:15.932Z,66.50
2022-09-28T06:50:44.405Z,66.54
2022-09-28T06:53:14.863Z,66.87
2022-09-28T06:55:51.124Z,67.05
2022-09-28T06:58:21.890Z,67.07
2022-09-28T07:00:52.724Z,67.22
2022-09-28T07:03:23.324Z,67.12
2022-09-28T07:05:56.759Z,67.42
2022-09-28T07:08:27.199Z,67.51
2022-09-28T07:10:58.784Z,67.48
2022-09-28T07:16:26.422Z,67.49
2022-09-28T07:18:55.296Z,67.52
2022-09-28T07:21:29.935Z,67.48
2022-09-28T07:23:59.151Z,67.50
2022-09-28T07:26:27.449Z,67.54
2022-09-28T07:28:56.725Z,67.55
2022-09-28T07:31:26.166Z,67.64
2022-09-28T07:33:54.790Z,67.67
2022-09-28T07:36:23.765Z,67.57
2022-09-28T07:38:52.130Z,67.72
2022-09-28T07:41:33.113Z,67.83
2022-09-28T07:44:07.391Z,67.89
2022-09-28T07:46:36.737Z,67.71
2022-09-28T07:49:11.421Z,67.82
2022-09-28T07:51:40.779Z,67.91
2022-09-28T07:54:09.045Z,67.86
2022-09-28T07:56:38.195Z,67.94
2022-09-28T07:59:06.495Z,67.94
2022-09-28T08:01:34.990Z,68.02
2022-09-28T08:04:03.447Z,68.11
2022-09-28T08:06:32.410Z,67.83
2022-09-28T08:09:02.771Z,68.07
2022-09-28T08:11:31.126Z,68.31
2022-09-28T08:14:01.144Z,68.30
2022-09-28T08:16:29.942Z,68.46
2022-09-28T08:18:58.336Z,68.43
2022-09-28T08:21:45.049Z,68.58
2022-09-28T08:24:18.899Z,68.43
2022-09-28T08:26:48.085Z,68.42
2022-09-28T08:29:17.855Z,68.46
2022-09-28T08:31:49.521Z,68.54
2022-09-28T08:34:18.404Z,68.70
2022-09-28T08:36:46.805Z,68.63
2022-09-28T08:39:15.120Z,68.62
2022-09-28T08:41:43.430Z,68.57
2022-09-28T08:44:24.870Z,68.83
2022-09-28T08:47:00.928Z,68.88
2022-09-28T08:49:46.147Z,68.79
2022-09-28T08:52:24.250Z,68.90
2022-09-28T08:55:01.809Z,68.95
2022-09-28T08:57:47.119Z,69.09
2022-09-28T09:00:23.125Z,68.90
2022-09-28T09:02:51.793Z,68.94
2022-09-28T09:05:25.616Z,68.93
2022-09-28T09:08:12.796Z,68.99
2022-09-28T09:10:59.228Z,69.23
2022-09-28T09:14:13.583Z,69.19
2022-09-28T09:17:13.338Z,69.08
2022-09-28T09:19:56.092Z,69.27
2022-09-28T09:22:37.210Z,69.17
2022-09-28T09:25:27.765Z,69.40
2022-09-28T09:28:36.245Z,69.42
2022-09-28T09:31:41.330Z,69.55
2022-09-28T09:34:33.534Z,69.68
2022-09-28T09:37:11.253Z,69.35
2022-09-28T09:39:51.780Z,69.83
2022-09-28T09:42:36.565Z,69.69
2022-09-28T09:45:04.829Z,69.75
2022-09-28T09:47:46.760Z,69.82
2022-09-28T09:50:30.982Z,69.86
2022-09-28T09:53:08.090Z,69.83
2022-09-28T09:55:43.769Z,70.00
2022-09-28T09:58:30.722Z,70.09
2022-09-28T10:01:22.207Z,70.06
2022-09-28T10:03:52.301Z,70.11
2022-09-28T10:06:33.490Z,70.33
2022-09-28T10:09:06.538Z,70.25
2022-09-28T10:11:45.206Z,70.29
2022-09-28T10:14:25.050Z,70.29
2022-09-28T10:16:56.837Z,70.43
2022-09-28T10:19:44.934Z,70.46
2022-09-28T10:22:19.126Z,70.58
2022-09-28T10:24:57.788Z,70.48
2022-09-28T10:27:37.843Z,70.64
2022-09-28T10:30:12.334Z,70.55
2022-09-28T10:32:41.358Z,70.63
2022-09-28T10:35:23.573Z,70.72
2022-09-28T10:38:08.369Z,70.60
2022-09-28T10:41:02.822Z,70.74
2022-09-28T10:43:39.986Z,70.97
2022-09-28T10:46:16.771Z,70.76
2022-09-28T10:48:54.004Z,70.82
2022-09-28T10:51:40.711Z,70.85
2022-09-28T10:54:20.405Z,70.95
2022-09-28T10:56:50.327Z,70.84
2022-09-28T10:59:31.919Z,71.05
2022-09-28T11:02:18.246Z,71.10
2022-09-28T11:04:53.620Z,71.01
2022-09-28T11:07:26.309Z,71.10
2022-09-28T11:09:56.700Z,71.24
2022-09-28T11:12:44.675Z,71.09
2022-09-28T11:15:20.234Z,71.35
2022-09-28T11:17:49.009Z,71.33
2022-09-28T11:20:28.535Z,71.29
2022-09-28T11:23:21.519Z,71.33
